createdAt,value
2023-01-22T00:01:22.855Z,13.80
2023-01-22T00:03:52.518Z,13.60
2023-01-22T00:06:21.234Z,11.20
2023-01-22T00:08:50.217Z,14.10
2023-01-22T00:11:19.411Z,18.20
2023-01-22T00:13:47.315Z,14.10
2023-01-22T00:16:16.542Z,14.80
2023-01-22T00:18:44.619Z,12.30
2023-01-22T00:21:13.571Z,11.70
2023-01-22T00:23:41.721Z,12.30
2023-01-22T00:26:13.485Z,8.90
2023-01-22T00:28:42.449Z,11.40
2023-01-22T00:31:11.099Z,10.00
2023-01-22T00:33:40.105Z,10.10
2023-01-22T00:36:09.082Z,10.50
2023-01-22T00:38:37.121Z,11.80
2023-01-22T00:41:06.278Z,11.00
2023-01-22T00:43:35.251Z,11.60
2023-01-22T00:46:03.340Z,10.20
2023-01-22T00:48:31.353Z,14.40
2023-01-22T00:50:59.275Z,12.50
2023-01-22T00:53:27.099Z,12.90
2023-01-22T00:55:59.912Z,12.70
2023-01-22T00:58:28.396Z,10.20
2023-01-22T01:00:56.609Z,11.50
2023-01-22T01:03:27.499Z,11.20
2023-01-22T01:05:55.966Z,13.30
2023-01-22T01:08:24.494Z,13.00
2023-01-22T01:10:56.414Z,11.50
2023-01-22T01:13:24.354Z,13.00
2023-01-22T01:15:58.976Z,10.50
2023-01-22T01:18:26.867Z,11.40
2023-01-22T01:20:58.580Z,13.60
2023-01-22T01:23:27.742Z,14.70
2023-01-22T01:25:55.700Z,12.40
2023-01-22T01:28:24.950Z,13.60
2023-01-22T01:30:54.865Z,13.60
2023-01-22T01:33:23.519Z,12.50
2023-01-22T01:35:58.718Z,12.50
2023-01-22T01:38:26.990Z,10.70
2023-01-22T01:40:54.983Z,12.40
2023-01-22T01:43:23.363Z,12.40
2023-01-22T01:45:51.302Z,15.80
2023-01-22T01:48:24.759Z,12.80
2023-01-22T01:51:12.904Z,11.00
2023-01-22T01:53:41.562Z,14.20
2023-01-22T01:56:12.460Z,13.30
2023-01-22T01:58:41.904Z,12.90
2023-01-22T02:01:14.566Z,14.30
2023-01-22T02:03:43.244Z,15.40
2023-01-22T02:06:11.931Z,15.60
2023-01-22T02:08:40.643Z,15.00
2023-01-22T02:11:09.192Z,15.00
2023-01-22T02:13:39.645Z,18.20
2023-01-22T02:16:10.387Z,17.00
2023-01-22T02:18:38.896Z,14.50
2023-01-22T02:21:26.734Z,17.00
2023-01-22T02:23:54.827Z,13.50
2023-01-22T02:26:25.849Z,18.10
2023-01-22T02:28:53.700Z,16.80
2023-01-22T02:31:21.531Z,19.10
2023-01-22T02:33:50.438Z,14.20
2023-01-22T02:36:18.498Z,17.70
2023-01-22T02:38:46.499Z,19.80
2023-01-22T02:41:15.307Z,18.20
2023-01-22T02:43:43.206Z,15.60
2023-01-22T02:46:11.038Z,20.80
2023-01-22T02:48:38.811Z,16.10
2023-01-22T02:51:07.080Z,19.00
2023-01-22T02:53:35.177Z,20.90
2023-01-22T02:56:07.007Z,16.70
2023-01-22T02:58:35.344Z,18.90
2023-01-22T03:01:20.704Z,20.30
2023-01-22T03:03:53.573Z,21.20
2023-01-22T03:06:22.649Z,20.70
2023-01-22T03:08:54.705Z,19.40
2023-01-22T03:11:25.572Z,17.90
2023-01-22T03:14:12.230Z,19.00
2023-01-22T03:16:59.644Z,20.70
2023-01-22T03:19:46.804Z,20.70
2023-01-22T03:22:16.230Z,22.50
2023-01-22T03:24:44.834Z,20.90
2023-01-22T03:27:12.792Z,22.50
2023-01-22T03:29:40.564Z,21.80
2023-01-22T03:32:08.710Z,19.10
2023-01-22T03:34:37.168Z,22.10
2023-01-22T03:37:10.012Z,18.40
2023-01-22T03:39:38.009Z,20.80
2023-01-22T03:42:06.767Z,16.30
2023-01-22T03:44:37.741Z,22.80
2023-01-22T03:47:05.738Z,23.40
2023-01-22T03:49:36.199Z,22.10
2023-01-22T03:52:04.059Z,18.70
2023-01-22T03:54:35.957Z,16.70
2023-01-22T03:57:19.944Z,18.50
2023-01-22T03:59:48.344Z,16.00
2023-01-22T04:02:16.568Z,19.50
2023-01-22T04:04:44.927Z,16.40
2023-01-22T04:07:12.985Z,18.60
2023-01-22T04:09:40.944Z,19.70
2023-01-22T04:12:08.815Z,21.80
2023-01-22T04:14:36.690Z,16.30
2023-01-22T04:17:04.872Z,17.70
2023-01-22T04:19:34.800Z,18.00
2023-01-22T04:22:04.927Z,16.50
2023-01-22T04:24:32.870Z,17.30
2023-01-22T04:27:00.621Z,17.20
2023-01-22T04:38:33.755Z,15.60
2023-01-22T04:41:00.320Z,17.50
2023-01-22T04:43:26.833Z,18.90
2023-01-22T04:45:53.462Z,15.60
2023-01-22T04:48:20.255Z,17.10
2023-01-22T04:50:46.874Z,16.10
2023-01-22T04:53:13.478Z,14.40
2023-01-22T04:55:41.446Z,14.70
2023-01-22T04:58:08.642Z,15.90
2023-01-22T05:06:44.576Z,15.00
2023-01-22T05:09:12.573Z,17.40
2023-01-22T05:11:40.764Z,14.00
2023-01-22T05:14:10.497Z,14.50
2023-01-22T05:16:38.777Z,14.10
2023-01-22T05:19:06.576Z,14.50
2023-01-22T05:21:34.772Z,19.20
2023-01-22T05:24:06.670Z,18.70
2023-01-22T05:26:36.248Z,20.70
2023-01-22T05:29:06.973Z,18.20
2023-01-22T05:31:35.069Z,19.10
2023-01-22T05:34:06.369Z,19.70
2023-01-22T05:36:34.210Z,18.70
2023-01-22T05:39:02.170Z,20.60
2023-01-22T05:41:29.996Z,20.70
2023-01-22T05:43:58.061Z,20.10
2023-01-22T05:46:25.974Z,17.40
2023-01-22T05:48:54.020Z,19.40
2023-01-22T05:51:22.218Z,20.20
2023-01-22T05:53:50.084Z,19.60
2023-01-22T05:56:17.981Z,18.80
2023-01-22T05:58:45.925Z,19.30
2023-01-22T06:01:13.803Z,20.80
2023-01-22T06:03:41.891Z,22.60
2023-01-22T06:06:13.467Z,22.80
2023-01-22T06:08:41.444Z,22.10
2023-01-22T06:11:13.711Z,22.20
2023-01-22T06:13:46.075Z,21.80
2023-01-22T06:16:15.487Z,24.40
2023-01-22T06:18:43.603Z,23.90
2023-01-22T06:21:11.539Z,18.30
2023-01-22T06:23:40.066Z,19.40
2023-01-22T06:26:08.189Z,20.90
2023-01-22T06:28:36.195Z,21.70
2023-01-22T06:31:07.945Z,19.80
2023-01-22T06:33:36.945Z,20.20
2023-01-22T06:36:05.471Z,21.20
2023-01-22T06:38:33.596Z,21.80
2023-01-22T06:41:01.826Z,21.20
2023-01-22T06:43:30.030Z,17.90
2023-01-22T06:45:57.934Z,18.70
2023-01-22T06:48:25.844Z,21.10
2023-01-22T06:50:57.195Z,17.30
2023-01-22T06:53:25.667Z,20.50
2023-01-22T06:55:53.510Z,20.40
2023-01-22T06:58:21.821Z,18.30
2023-01-22T07:00:49.758Z,20.10
2023-01-22T07:03:17.667Z,21.30
2023-01-22T07:05:45.585Z,20.00
2023-01-22T07:08:15.632Z,21.30
2023-01-22T07:10:43.501Z,19.10
2023-01-22T07:13:11.422Z,18.70
2023-01-22T07:15:39.295Z,19.90
2023-01-22T07:18:07.239Z,17.20
2023-01-22T07:20:35.071Z,20.20
2023-01-22T07:23:02.807Z,24.00
2023-01-22T07:25:30.700Z,22.10
2023-01-22T07:28:01.028Z,18.10
2023-01-22T07:30:29.332Z,22.80
2023-01-22T07:33:01.031Z,22.20
2023-01-22T07:35:29.335Z,22.30
2023-01-22T07:38:00.332Z,21.70
2023-01-22T07:40:30.521Z,22.60
2023-01-22T07:42:58.463Z,23.00
2023-01-22T07:45:26.503Z,23.10
2023-01-22T07:47:58.887Z,24.60
2023-01-22T07:50:28.280Z,26.70
2023-01-22T07:52:56.347Z,23.90
2023-01-22T07:55:24.240Z,22.90
2023-01-22T07:58:02.424Z,28.50
2023-01-22T08:00:31.034Z,28.60
2023-01-22T08:02:58.956Z,37.80
2023-01-22T08:05:26.863Z,33.60
2023-01-22T08:07:55.005Z,27.00
2023-01-22T08:10:23.087Z,30.40
2023-01-22T08:12:50.998Z,30.00
2023-01-22T08:15:18.847Z,29.20
2023-01-22T08:17:48.752Z,27.30
2023-01-22T08:20:17.636Z,26.60
2023-01-22T08:22:45.847Z,30.30
2023-01-22T08:25:13.837Z,25.60
2023-01-22T08:27:41.600Z,29.00
2023-01-22T08:30:11.520Z,35.50
2023-01-22T08:32:41.470Z,29.40
2023-01-22T08:35:11.935Z,26.70
2023-01-22T08:37:43.962Z,30.20
2023-01-22T08:40:12.603Z,33.00
2023-01-22T08:42:40.999Z,35.10
2023-01-22T08:45:09.535Z,30.60
2023-01-22T08:47:37.612Z,32.20
2023-01-22T08:50:06.134Z,32.80
2023-01-22T08:52:34.255Z,30.60
2023-01-22T08:58:24.036Z,26.60
2023-01-22T09:00:57.935Z,26.80
2023-01-22T09:03:27.822Z,31.70
2023-01-22T09:05:59.798Z,29.60
2023-01-22T09:08:37.926Z,28.70
2023-01-22T09:11:07.128Z,26.60
2023-01-22T09:13:35.627Z,26.70
2023-01-22T09:16:06.447Z,32.30
2023-01-22T09:18:35.504Z,30.00
2023-01-22T09:21:04.746Z,26.60
2023-01-22T09:23:33.079Z,34.60
2023-01-22T09:26:01.541Z,28.70
2023-01-22T09:28:30.387Z,31.10
2023-01-22T09:30:58.839Z,28.40
2023-01-22T09:33:30.832Z,29.20
2023-01-22T09:36:15.248Z,31.60
2023-01-22T09:45:34.322Z,36.10
2023-01-22T09:48:38.311Z,34.70
2023-01-22T09:55:10.542Z,42.40
2023-01-22T09:57:47.094Z,46.70
2023-01-22T10:00:16.486Z,47.50
2023-01-22T10:07:00.794Z,52.30
2023-01-22T10:09:30.804Z,61.00
2023-01-22T10:11:59.510Z,56.60
2023-01-22T10:14:29.489Z,58.50
2023-01-22T10:16:59.512Z,56.30
2023-01-22T10:19:30.547Z,48.00
2023-01-22T10:22:05.263Z,55.80
2023-01-22T10:24:33.621Z,54.10
2023-01-22T10:27:10.288Z,55.70
2023-01-22T10:29:39.453Z,57.10
2023-01-22T10:32:18.181Z,58.00
2023-01-22T10:34:57.985Z,52.00
2023-01-22T10:37:26.141Z,47.40
2023-01-22T10:39:57.202Z,46.90
2023-01-22T10:42:26.666Z,44.80
2023-01-22T10:44:55.907Z,49.00
2023-01-22T10:47:27.652Z,47.90
2023-01-22T10:50:04.569Z,49.50
2023-01-22T10:52:41.851Z,61.70
2023-01-22T10:55:23.858Z,52.90
2023-01-22T10:58:02.985Z,59.80
2023-01-22T11:00:52.452Z,54.90
2023-01-22T11:03:23.999Z,59.40
2023-01-22T11:05:58.170Z,54.70
2023-01-22T11:08:31.081Z,50.80
2023-01-22T11:11:03.736Z,53.20
2023-01-22T11:13:32.300Z,56.40
2023-01-22T11:16:05.580Z,51.60
2023-01-22T11:18:39.997Z,55.20
2023-01-22T11:21:28.975Z,55.20
2023-01-22T11:24:09.460Z,47.50
2023-01-22T11:26:56.873Z,56.30
2023-01-22T11:29:31.810Z,52.80
2023-01-22T11:32:07.065Z,49.00
2023-01-22T11:34:38.512Z,55.90
2023-01-22T11:37:13.005Z,50.90
2023-01-22T11:39:44.779Z,53.60
2023-01-22T11:42:13.091Z,61.60
2023-01-22T11:45:20.833Z,62.00
2023-01-22T11:47:59.380Z,44.60
2023-01-22T11:50:33.702Z,40.80
2023-01-22T11:53:02.553Z,41.60
2023-01-22T11:55:39.884Z,51.20
2023-01-22T11:58:14.661Z,44.20
2023-01-22T12:00:46.141Z,37.30
2023-01-22T12:03:14.780Z,39.10
2023-01-22T12:05:55.327Z,35.50
2023-01-22T12:08:38.200Z,40.00
2023-01-22T12:11:32.323Z,43.70
2023-01-22T12:14:19.493Z,40.00
2023-01-22T12:16:59.986Z,44.40
2023-01-22T12:19:37.267Z,33.80
2023-01-22T12:22:24.078Z,38.90
2023-01-22T12:24:58.674Z,41.00
2023-01-22T12:27:37.033Z,39.30
2023-01-22T12:30:12.841Z,37.90
2023-01-22T12:32:42.582Z,39.50
2023-01-22T12:35:16.568Z,46.30
2023-01-22T12:38:07.771Z,48.00
2023-01-22T12:40:54.593Z,38.80
2023-01-22T12:43:41.478Z,46.10
2023-01-22T12:46:21.867Z,45.80
2023-01-22T12:48:49.763Z,36.30
2023-01-22T12:51:43.849Z,37.80
2023-01-22T12:54:21.009Z,32.30
2023-01-22T12:56:50.233Z,36.20
2023-01-22T12:59:30.397Z,38.30
2023-01-22T13:01:59.680Z,37.70
2023-01-22T13:04:28.936Z,42.20
2023-01-22T13:07:19.173Z,44.00
2023-01-22T13:09:47.869Z,38.70
2023-01-22T13:12:43.842Z,42.50
2023-01-22T13:15:17.304Z,43.00
2023-01-22T13:17:53.059Z,45.70
2023-01-22T13:20:33.938Z,40.50
2023-01-22T13:23:02.704Z,44.70
2023-01-22T13:25:32.501Z,45.30
2023-01-22T13:28:03.318Z,44.50
2023-01-22T13:30:32.571Z,49.20
2023-01-22T13:33:03.564Z,48.70
2023-01-22T13:35:34.715Z,44.70
2023-01-22T13:38:03.508Z,43.10
2023-01-22T13:40:42.671Z,47.30
2023-01-22T13:43:20.625Z,45.70
2023-01-22T13:45:50.312Z,44.70
2023-01-22T13:48:22.650Z,47.80
2023-01-22T13:50:55.346Z,49.30
2023-01-22T13:53:26.184Z,48.00
2023-01-22T13:56:04.210Z,46.20
2023-01-22T13:58:48.594Z,45.60
2023-01-22T14:01:35.005Z,50.20
2023-01-22T14:04:08.809Z,49.40
2023-01-22T14:06:49.931Z,47.90
2023-01-22T14:09:26.179Z,54.70
2023-01-22T14:11:55.450Z,52.00
2023-01-22T14:14:23.872Z,55.80
2023-01-22T14:16:53.968Z,58.10
2023-01-22T14:19:25.577Z,50.90
2023-01-22T14:21:54.629Z,46.20
2023-01-22T14:24:23.225Z,55.10
2023-01-22T14:26:52.049Z,58.60
2023-01-22T14:29:21.274Z,53.40
2023-01-22T14:31:50.373Z,55.00
2023-01-22T14:34:19.258Z,61.60
2023-01-22T14:36:50.066Z,64.40
2023-01-22T14:39:19.646Z,64.70
2023-01-22T14:41:51.948Z,64.90
2023-01-22T14:44:21.096Z,58.60
2023-01-22T14:46:51.815Z,63.40
2023-01-22T14:49:21.650Z,59.00
2023-01-22T14:51:53.139Z,59.70
2023-01-22T14:54:25.563Z,64.10
2023-01-22T14:56:56.473Z,61.40
2023-01-22T14:59:25.198Z,61.70
2023-01-22T15:01:53.974Z,64.10
2023-01-22T15:04:23.057Z,63.10
2023-01-22T15:06:52.529Z,62.60
2023-01-22T15:09:22.097Z,57.70
2023-01-22T15:11:51.082Z,67.50
2023-01-22T15:14:19.851Z,70.50
2023-01-22T15:16:48.573Z,69.00
2023-01-22T15:19:18.523Z,55.40
2023-01-22T15:21:47.633Z,52.90
2023-01-22T15:24:16.027Z,57.10
2023-01-22T15:26:44.832Z,67.30
2023-01-22T15:29:14.350Z,73.20
2023-01-22T15:31:43.164Z,64.70
2023-01-22T15:34:11.765Z,67.00
2023-01-22T15:36:40.061Z,66.30
2023-01-22T15:39:08.663Z,64.80
2023-01-22T15:41:37.965Z,62.20
2023-01-22T15:44:06.722Z,57.20
2023-01-22T15:46:36.343Z,57.50
2023-01-22T15:49:05.649Z,60.60
2023-01-22T15:51:35.747Z,60.50
2023-01-22T15:54:05.629Z,56.00
2023-01-22T15:56:39.329Z,62.00
2023-01-22T15:59:07.684Z,54.40
2023-01-22T16:01:36.029Z,58.50
2023-01-22T16:04:05.387Z,61.70
2023-01-22T16:06:34.509Z,63.30
2023-01-22T16:09:04.529Z,60.30
2023-01-22T16:11:33.131Z,55.20
2023-01-22T16:14:01.373Z,49.00
2023-01-22T16:16:31.782Z,57.10
2023-01-22T16:19:01.160Z,55.60
2023-01-22T16:21:30.043Z,54.10
2023-01-22T16:24:00.562Z,54.40
2023-01-22T16:26:31.790Z,48.40
2023-01-22T16:29:01.791Z,48.20
2023-01-22T16:31:33.038Z,58.30
2023-01-22T16:34:12.654Z,59.00
2023-01-22T16:36:41.927Z,68.00
2023-01-22T16:39:16.030Z,70.40
2023-01-22T16:41:46.806Z,72.40
2023-01-22T16:44:19.952Z,68.70
2023-01-22T16:46:49.853Z,65.90
2023-01-22T16:49:22.675Z,57.30
2023-01-22T16:51:55.500Z,58.80
2023-01-22T16:54:28.147Z,59.40
2023-01-22T16:56:58.152Z,52.40
2023-01-22T16:59:27.521Z,55.40
2023-01-22T17:01:58.674Z,52.60
2023-01-22T17:04:27.751Z,54.70
2023-01-22T17:06:57.405Z,46.50
2023-01-22T17:09:26.890Z,46.30
2023-01-22T17:11:56.499Z,46.70
2023-01-22T17:14:27.208Z,57.20
2023-01-22T17:16:56.314Z,58.00
2023-01-22T17:19:24.774Z,58.10
2023-01-22T17:21:59.761Z,46.30
2023-01-22T17:24:29.148Z,43.90
2023-01-22T17:27:02.734Z,48.50
2023-01-22T17:29:35.393Z,44.20
2023-01-22T17:32:04.635Z,48.20
2023-01-22T17:34:33.554Z,47.40
2023-01-22T17:37:04.784Z,49.00
2023-01-22T17:39:33.661Z,48.70
2023-01-22T17:42:02.248Z,45.00
2023-01-22T17:44:31.051Z,41.80
2023-01-22T17:47:02.640Z,37.00
2023-01-22T17:49:33.502Z,46.30
2023-01-22T17:52:02.703Z,47.80
2023-01-22T18:00:54.195Z,44.00
2023-01-22T18:03:32.279Z,38.40
2023-01-22T18:06:03.840Z,40.80
2023-01-22T18:08:34.982Z,40.70
2023-01-22T18:11:12.354Z,38.70
2023-01-22T18:13:43.754Z,42.50
2023-01-22T18:16:20.920Z,41.90
2023-01-22T18:19:24.479Z,44.10
2023-01-22T18:22:08.427Z,41.40
2023-01-22T18:27:51.420Z,38.20
2023-01-22T18:30:41.341Z,41.60
2023-01-22T18:33:52.396Z,42.60
2023-01-22T18:36:43.376Z,37.30
2023-01-22T18:39:34.188Z,36.80
2023-01-22T18:42:05.539Z,37.00
2023-01-22T18:44:42.396Z,35.60
2023-01-22T18:47:26.707Z,30.80
2023-01-22T18:50:36.329Z,36.00
2023-01-22T18:53:25.961Z,35.30
2023-01-22T18:55:58.905Z,36.50
2023-01-22T18:58:32.195Z,39.30
2023-01-22T19:01:21.527Z,41.40
2023-01-22T19:04:03.521Z,35.30
2023-01-22T19:06:37.976Z,43.90
2023-01-22T19:09:08.743Z,40.60
2023-01-22T19:11:38.794Z,46.00
2023-01-22T19:14:11.905Z,42.00
2023-01-22T19:16:45.147Z,38.20
2023-01-22T19:25:48.108Z,33.20
2023-01-22T19:28:19.327Z,29.30
2023-01-22T19:30:48.039Z,31.70
2023-01-22T19:33:16.889Z,35.00
2023-01-22T19:35:54.859Z,37.30
2023-01-22T19:38:23.708Z,37.40
2023-01-22T19:40:54.270Z,39.00
2023-01-22T19:43:23.225Z,38.50
2023-01-22T19:45:56.451Z,42.60
2023-01-22T19:48:26.521Z,36.40
2023-01-22T19:50:58.558Z,30.90
2023-01-22T19:53:49.019Z,32.30
2023-01-22T19:56:24.787Z,33.80
2023-01-22T19:59:15.386Z,33.40
2023-01-22T20:01:48.833Z,34.60
2023-01-22T20:04:21.615Z,31.00
2023-01-22T20:06:55.165Z,38.10
2023-01-22T20:09:24.203Z,33.90
2023-01-22T20:11:56.450Z,38.70
2023-01-22T20:14:35.224Z,35.60
2023-01-22T20:17:04.029Z,49.50
2023-01-22T20:19:33.381Z,61.90
2023-01-22T20:22:05.130Z,47.20
2023-01-22T20:24:35.278Z,43.90
2023-01-22T20:27:04.722Z,44.40
2023-01-22T20:29:33.711Z,46.20
2023-01-22T20:32:03.677Z,39.20
2023-01-22T20:34:32.575Z,44.90
2023-01-22T20:37:04.032Z,34.00
2023-01-22T20:39:33.364Z,36.30
2023-01-22T20:42:02.712Z,43.30
2023-01-22T20:44:37.291Z,41.10
2023-01-22T20:47:19.857Z,38.20
2023-01-22T20:49:50.729Z,43.00
2023-01-22T20:52:22.017Z,43.80
2023-01-22T20:55:01.560Z,47.60
2023-01-22T20:57:36.634Z,42.80
2023-01-22T21:00:12.128Z,41.90
2023-01-22T21:02:42.572Z,35.90
2023-01-22T21:05:23.195Z,35.30
2023-01-22T21:07:52.219Z,38.30
2023-01-22T21:10:32.125Z,37.60
2023-01-22T21:13:22.335Z,38.50
2023-01-22T21:15:56.280Z,42.10
2023-01-22T21:18:32.633Z,36.90
2023-01-22T21:22:07.921Z,39.60
2023-01-22T21:25:14.249Z,40.00
2023-01-22T21:33:34.873Z,45.70
2023-01-22T21:36:05.244Z,40.80
2023-01-22T21:38:34.387Z,47.70
2023-01-22T21:41:08.987Z,51.30
2023-01-22T21:43:58.473Z,40.70
2023-01-22T21:46:27.540Z,43.30
2023-01-22T21:48:58.499Z,41.20
2023-01-22T21:52:04.807Z,38.30
2023-01-22T21:54:38.417Z,41.50
2023-01-22T21:57:06.541Z,38.20
2023-01-22T21:59:36.019Z,39.70
2023-01-22T22:02:03.474Z,36.20
2023-01-22T22:04:40.609Z,33.40
2023-01-22T22:07:08.099Z,35.40
2023-01-22T22:09:35.321Z,39.40
2023-01-22T22:12:05.677Z,33.60
2023-01-22T22:14:34.333Z,34.90
2023-01-22T22:17:08.482Z,37.00
2023-01-22T22:19:37.895Z,37.10
2023-01-22T22:22:07.960Z,40.10
2023-01-22T22:24:43.880Z,39.00
2023-01-22T22:27:10.983Z,46.10
2023-01-22T22:29:38.066Z,38.00
2023-01-22T22:32:05.190Z,41.20
2023-01-22T22:34:32.338Z,40.60
2023-01-22T22:37:02.992Z,41.90
2023-01-22T22:39:44.399Z,41.60
2023-01-22T22:42:11.811Z,34.10
2023-01-22T22:44:40.502Z,33.80
2023-01-22T22:47:11.046Z,34.70
2023-01-22T22:49:38.898Z,39.40
2023-01-22T22:52:06.190Z,34.00
2023-01-22T22:55:14.215Z,36.30
2023-01-22T22:57:43.262Z,37.30
2023-01-22T23:00:13.135Z,40.60
2023-01-22T23:02:43.830Z,38.20
2023-01-22T23:05:13.500Z,41.80
2023-01-22T23:07:40.401Z,37.20
2023-01-22T23:10:27.580Z,46.80
2023-01-22T23:12:56.125Z,41.30
2023-01-22T23:15:24.784Z,38.80
2023-01-22T23:17:52.441Z,40.50
2023-01-22T23:20:20.045Z,44.00
2023-01-22T23:22:46.809Z,44.70
2023-01-22T23:25:14.962Z,41.60
2023-01-22T23:27:41.622Z,38.80
2023-01-22T23:30:08.661Z,44.50
2023-01-22T23:32:35.710Z,39.10
2023-01-22T23:35:02.392Z,39.10
2023-01-22T23:37:28.992Z,41.10
2023-01-22T23:39:55.869Z,39.90
2023-01-22T23:42:22.997Z,44.70
2023-01-22T23:44:49.732Z,36.00
2023-01-22T23:47:16.531Z,42.50
2023-01-22T23:49:43.448Z,45.00
2023-01-22T23:52:10.265Z,43.00
2023-01-22T23:54:36.747Z,38.00
2023-01-22T23:57:03.461Z,36.80
2023-01-22T23:59:30.233Z,39.90
